Haines City, Florida
Current Conditions -  °F | °C
As of 6:53 AM on Friday 24 Oct 2014 (Local Time) from KGIF Reporting Station
Clear Clear  
Wind Chill: 62°   Ceiling: Unl
Heat Index: 62°   Visibility: 10mi
Dew Point: 56°   Wind: 9mph
Humidity: 80%   Direction: 20°NNE
Pressure: 29.97"   Gusts: NA
Location:  28.11°N, 81.63°W
Report Text: KGIF 241053Z AUTO 02008KT 10SM CLR 17/13 A2997 RMK AO2 SLP145 T01670133
Loading
Personal Weather Stations






























Interactive Weather Map
Tropical Storm Tracking
New forecast layout! Learn more

10-Day Weather Forecast

Advertisements
Track Severe Weather on mobile